Weather in selectable METAR weather stations Station search

1) Select the Continent / Group:

[Europe]  [Asia]  [Africa]  [North America]  [South America]  
[Central America and Caribbean]  [Oceania]  [Antarctica]  
2) Select the Weather station (City):


METAR = DAUA 190200Z 06008KT CAVOK 19/M02 Q1019

STATIONDAUA
NAMEAdrar/Belkebir Arpt, AD, AL
OBSERVED19.10.2021 03:00 (19.10.2021 02:00 UTC), 8 min ago
TEMPERATURE19.0°C ( 66°F)
WINDENE (60 degrees) at 9 MPH (8 knots; 4.1 m/s)
HUMIDITY24%
PRESSURE1019 hPa
Click here to search the weather station or to give the station identifier
(four-character ICAO Location Indicator) for weather data.